Time;durP1;ratioP1;P1;durP2;ratioP2;P2;SDS_P1;SDS_P2;PMS_P1;PMS_P2;Temp;Humidity;BMP_temperature;BMP_pressure;BME280_temperature;BME280_humidity;BME280_pressure;Samples;Min_cycle;Max_cycle;Signal;HPM_P1;HPM_P2
2024/02/28 00:01:32;;;;;;;47.85;45.05;;;;;;;;;;5066348;28;20109;-56
2024/02/28 00:04:18;;;;;;;47.45;44.95;;;;;;;;;;5060413;28;20044;-51
2024/02/28 00:07:04;;;;;;;47.58;44.88;;;;;;;;;;5060158;28;20438;-53
2024/02/28 00:09:50;;;;;;;43.80;41.35;;;;;;;;;;5062142;28;20565;-52
2024/02/28 00:12:35;;;;;;;46.00;43.25;;;;;;;;;;5063870;28;20044;-52
2024/02/28 00:15:21;;;;;;;46.83;44.20;;;;;;;;;;5062889;28;20130;-53
2024/02/28 00:18:07;;;;;;;50.40;47.70;;;;;;;;;;5062768;28;20041;-52
2024/02/28 00:20:54;;;;;;;47.35;44.63;;;;;;;;;;5060893;28;20040;-52
2024/02/28 00:23:39;;;;;;;49.35;46.60;;;;;;;;;;5059414;28;20103;-54
2024/02/28 00:26:25;;;;;;;46.30;43.90;;;;;;;;;;5060532;28;20378;-52
2024/02/28 00:29:11;;;;;;;46.17;43.63;;;;;;;;;;5063129;28;20122;-52
2024/02/28 00:31:56;;;;;;;46.97;44.40;;;;;;;;;;5062347;28;20473;-53
2024/02/28 00:34:42;;;;;;;44.45;41.85;;;;;;;;;;5059339;28;20537;-50
2024/02/28 00:37:28;;;;;;;42.72;40.20;;;;;;;;;;5058691;28;20643;-52
2024/02/28 00:40:13;;;;;;;43.70;41.28;;;;;;;;;;5061225;28;20273;-54
2024/02/28 00:42:59;;;;;;;41.40;39.20;;;;;;;;;;5062369;28;20063;-53
2024/02/28 00:45:45;;;;;;;44.28;41.70;;;;;;;;;;5062095;28;20417;-53
2024/02/28 00:48:31;;;;;;;42.63;40.38;;;;;;;;;;5059267;28;20106;-55
2024/02/28 00:51:16;;;;;;;41.35;39.08;;;;;;;;;;5061902;28;20086;-54
2024/02/28 00:54:02;;;;;;;37.17;35.17;;;;;;;;;;5062649;28;20035;-54
2024/02/28 00:56:48;;;;;;;41.15;38.92;;;;;;;;;;5062602;28;20048;-51
2024/02/28 00:59:33;;;;;;;36.58;34.47;;;;;;;;;;5057704;28;20040;-54
2024/02/28 01:02:19;;;;;;;38.42;36.33;;;;;;;;;;5060317;28;20041;-55
2024/02/28 01:05:05;;;;;;;41.30;39.10;;;;;;;;;;5060229;28;20394;-55
2024/02/28 01:07:50;;;;;;;38.50;36.08;;;;;;;;;;5064480;28;20036;-55
2024/02/28 01:10:38;;;;;;;37.70;35.35;;;;;;;;;;5059257;28;20035;-53
2024/02/28 01:13:23;;;;;;;34.95;32.88;;;;;;;;;;5059958;28;20043;-52
2024/02/28 01:16:09;;;;;;;31.33;29.48;;;;;;;;;;5061417;28;20032;-52
2024/02/28 01:18:54;;;;;;;30.92;28.95;;;;;;;;;;5051040;28;20032;-55
2024/02/28 01:21:40;;;;;;;30.55;28.75;;;;;;;;;;5060908;28;20083;-54
2024/02/28 01:24:26;;;;;;;27.30;25.73;;;;;;;;;;5059252;28;20442;-55
2024/02/28 01:27:11;;;;;;;29.73;27.67;;;;;;;;;;5059732;28;20031;-55
2024/02/28 01:29:57;;;;;;;27.92;26.33;;;;;;;;;;5066711;28;20040;-53
2024/02/28 01:32:43;;;;;;;29.08;27.40;;;;;;;;;;5060834;28;20514;-54
2024/02/28 01:35:28;;;;;;;31.73;29.83;;;;;;;;;;5061202;28;20501;-53
2024/02/28 01:38:14;;;;;;;28.40;26.80;;;;;;;;;;5058739;28;20037;-53
2024/02/28 01:41:00;;;;;;;29.13;27.52;;;;;;;;;;5062690;28;20517;-52
2024/02/28 01:43:45;;;;;;;29.52;27.92;;;;;;;;;;5062282;28;20385;-54
2024/02/28 01:46:31;;;;;;;28.65;27.05;;;;;;;;;;5057034;28;20048;-55
2024/02/28 01:49:18;;;;;;;26.58;24.90;;;;;;;;;;5064912;28;20054;-53
2024/02/28 01:52:04;;;;;;;28.63;26.83;;;;;;;;;;5058451;28;20140;-53
2024/02/28 01:54:50;;;;;;;28.58;26.77;;;;;;;;;;5061515;28;20048;-53
2024/02/28 01:57:37;;;;;;;26.70;25.20;;;;;;;;;;5048709;28;20407;-54
2024/02/28 02:00:24;;;;;;;28.20;26.40;;;;;;;;;;5059103;28;20044;-57
2024/02/28 02:03:09;;;;;;;26.42;24.83;;;;;;;;;;5059944;28;20040;-53
2024/02/28 02:05:55;;;;;;;27.50;25.90;;;;;;;;;;5062239;28;20102;-58
2024/02/28 02:08:41;;;;;;;24.30;22.90;;;;;;;;;;5063753;28;20128;-54
2024/02/28 02:11:28;;;;;;;24.02;22.65;;;;;;;;;;5063788;28;20068;-53
2024/02/28 02:14:13;;;;;;;24.00;22.48;;;;;;;;;;5064950;28;20595;-53
2024/02/28 02:16:59;;;;;;;24.50;22.80;;;;;;;;;;5063889;28;20424;-55
2024/02/28 02:19:45;;;;;;;23.50;22.20;;;;;;;;;;5061511;28;20488;-54
2024/02/28 02:22:38;;;;;;;26.92;25.23;;;;;;;;;;5063431;28;20055;-55
2024/02/28 02:25:23;;;;;;;21.75;20.55;;;;;;;;;;5061649;28;20123;-52
2024/02/28 02:28:09;;;;;;;23.80;22.40;;;;;;;;;;5065206;28;20036;-53
2024/02/28 02:30:55;;;;;;;22.58;21.17;;;;;;;;;;5064947;28;20071;-54
2024/02/28 02:33:40;;;;;;;23.83;22.17;;;;;;;;;;5062183;28;20036;-54
2024/02/28 02:36:26;;;;;;;21.88;20.67;;;;;;;;;;5063996;28;20052;-54
2024/02/28 02:39:11;;;;;;;22.75;21.35;;;;;;;;;;5063635;28;20159;-54
2024/02/28 02:41:57;;;;;;;25.38;23.52;;;;;;;;;;5061069;28;20065;-54
2024/02/28 02:44:43;;;;;;;24.27;22.67;;;;;;;;;;5061814;28;20102;-55
2024/02/28 02:47:30;;;;;;;26.00;24.50;;;;;;;;;;5061895;28;20417;-56
2024/02/28 02:50:16;;;;;;;24.67;23.25;;;;;;;;;;5066701;28;20506;-51
2024/02/28 02:53:07;;;;;;;25.75;24.25;;;;;;;;;;5064720;28;20051;-53
2024/02/28 02:55:53;;;;;;;;;;;;;;;;;;5063255;28;20166;-55
2024/02/28 02:58:39;;;;;;;25.98;24.42;;;;;;;;;;5060593;28;19923;-54
2024/02/28 03:01:25;;;;;;;39.92;26.02;;;;;;;;;;5063050;28;20093;-53
2024/02/28 03:04:10;;;;;;;25.30;23.80;;;;;;;;;;5050895;28;20138;-54
2024/02/28 03:06:56;;;;;;;25.73;24.10;;;;;;;;;;5064399;28;20466;-55
2024/02/28 03:09:42;;;;;;;28.40;26.70;;;;;;;;;;5063934;28;20557;-51
2024/02/28 03:12:27;;;;;;;26.65;24.95;;;;;;;;;;5064816;28;20063;-55
2024/02/28 03:15:13;;;;;;;28.98;27.38;;;;;;;;;;5065080;28;20044;-54
2024/02/28 03:17:58;;;;;;;27.23;25.63;;;;;;;;;;5066976;28;20461;-54
2024/02/28 03:20:44;;;;;;;32.33;24.60;;;;;;;;;;5051471;28;20080;-52
2024/02/28 03:23:30;;;;;;;27.25;25.65;;;;;;;;;;5065242;28;20040;-53
2024/02/28 03:26:15;;;;;;;26.10;24.67;;;;;;;;;;5061444;28;20123;-53
2024/02/28 03:29:01;;;;;;;27.55;25.95;;;;;;;;;;5065000;28;20179;-53
2024/02/28 03:31:47;;;;;;;27.75;26.10;;;;;;;;;;5052172;28;20063;-52
2024/02/28 03:34:32;;;;;;;27.27;25.77;;;;;;;;;;5062362;28;20438;-54
2024/02/28 03:37:18;;;;;;;29.77;27.98;;;;;;;;;;5061823;28;20032;-52
2024/02/28 03:40:04;;;;;;;29.10;27.15;;;;;;;;;;5063339;28;20071;-56
2024/02/28 03:42:50;;;;;;;28.80;27.10;;;;;;;;;;5065359;28;20056;-54
2024/02/28 03:45:39;;;;;;;27.98;26.40;;;;;;;;;;5063462;28;20067;-54
2024/02/28 03:48:25;;;;;;;31.40;29.60;;;;;;;;;;5061704;28;20440;-54
2024/02/28 03:51:10;;;;;;;30.80;29.05;;;;;;;;;;5061286;28;20048;-54
2024/02/28 03:53:56;;;;;;;32.92;31.05;;;;;;;;;;5062297;28;20470;-52
2024/02/28 03:56:42;;;;;;;34.20;32.22;;;;;;;;;;5064884;28;20040;-55
2024/02/28 03:59:27;;;;;;;30.27;28.67;;;;;;;;;;5062967;28;20637;-53
2024/02/28 04:02:13;;;;;;;34.17;32.08;;;;;;;;;;5062796;28;20088;-54
2024/02/28 04:04:58;;;;;;;32.05;30.15;;;;;;;;;;5060606;28;20055;-52
2024/02/28 04:07:44;;;;;;;31.33;29.52;;;;;;;;;;5051659;28;20491;-54
2024/02/28 04:10:30;;;;;;;31.05;29.30;;;;;;;;;;5060828;28;20048;-53
2024/02/28 04:13:15;;;;;;;31.55;29.65;;;;;;;;;;5051930;28;20078;-52
2024/02/28 04:16:04;;;;;;;31.75;29.77;;;;;;;;;;5061694;28;20098;-54
2024/02/28 04:18:49;;;;;;;32.47;30.75;;;;;;;;;;5060553;28;20516;-53
2024/02/28 04:21:35;;;;;;;32.40;30.10;;;;;;;;;;5061276;28;20428;-55
2024/02/28 04:24:21;;;;;;;31.38;29.60;;;;;;;;;;5068361;28;20040;-55
2024/02/28 04:27:09;;;;;;;27.48;25.83;;;;;;;;;;5057064;28;20495;-54
2024/02/28 04:29:55;;;;;;;27.73;26.17;;;;;;;;;;5063899;28;20044;-54
2024/02/28 04:32:41;;;;;;;30.15;28.15;;;;;;;;;;5063568;28;20037;-51
2024/02/28 04:35:26;;;;;;;28.23;26.52;;;;;;;;;;5062617;28;20068;-54
2024/02/28 04:38:12;;;;;;;27.30;25.80;;;;;;;;;;5061116;28;20029;-52
2024/02/28 04:40:58;;;;;;;27.50;25.98;;;;;;;;;;5057752;28;20264;-55
2024/02/28 04:43:43;;;;;;;28.73;27.13;;;;;;;;;;5049397;28;20067;-54
2024/02/28 04:46:29;;;;;;;29.30;27.70;;;;;;;;;;5061938;28;20509;-52
2024/02/28 04:49:14;;;;;;;28.83;27.05;;;;;;;;;;5060547;28;20443;-54
2024/02/28 04:52:00;;;;;;;30.13;28.05;;;;;;;;;;5066912;28;20044;-51
2024/02/28 04:54:46;;;;;;;30.10;28.20;;;;;;;;;;5059679;28;20047;-54
2024/02/28 04:57:31;;;;;;;30.15;27.92;;;;;;;;;;5060827;28;20332;-55
2024/02/28 05:00:17;;;;;;;30.35;28.65;;;;;;;;;;5063193;28;20041;-52
2024/02/28 05:03:03;;;;;;;29.80;28.00;;;;;;;;;;5060164;28;20052;-53
2024/02/28 05:05:48;;;;;;;29.52;27.73;;;;;;;;;;5050266;28;20047;-53
2024/02/28 05:08:38;;;;;;;29.92;28.13;;;;;;;;;;5064574;28;20055;-54
2024/02/28 05:11:23;;;;;;;30.42;28.63;;;;;;;;;;5060967;28;20116;-56
2024/02/28 05:14:10;;;;;;;32.55;30.67;;;;;;;;;;5058588;28;20046;-54
2024/02/28 05:16:56;;;;;;;31.08;29.10;;;;;;;;;;5061434;28;20493;-52
2024/02/28 05:19:41;;;;;;;29.70;27.83;;;;;;;;;;5060438;28;20187;-55
2024/02/28 05:22:27;;;;;;;30.77;29.08;;;;;;;;;;5062677;28;20042;-54
2024/02/28 05:25:13;;;;;;;28.52;26.92;;;;;;;;;;5062955;28;20046;-53
2024/02/28 05:27:58;;;;;;;30.52;28.83;;;;;;;;;;5048108;28;20040;-54
2024/02/28 05:30:44;;;;;;;30.42;28.75;;;;;;;;;;5066826;28;20040;-55
2024/02/28 05:33:29;;;;;;;29.35;27.65;;;;;;;;;;5049723;28;21163;-55
2024/02/28 05:36:15;;;;;;;29.85;28.23;;;;;;;;;;5062982;28;20458;-55
2024/02/28 05:39:01;;;;;;;30.48;28.75;;;;;;;;;;5064072;28;20051;-56
2024/02/28 05:41:47;;;;;;;31.83;30.08;;;;;;;;;;5065403;28;20079;-54
2024/02/28 05:44:34;;;;;;;34.05;31.98;;;;;;;;;;5067609;28;20067;-57
2024/02/28 05:47:20;;;;;;;33.63;31.52;;;;;;;;;;5065569;28;20048;-56
2024/02/28 05:50:06;;;;;;;31.95;30.17;;;;;;;;;;5065197;28;20051;-55
2024/02/28 05:52:51;;;;;;;34.63;32.72;;;;;;;;;;5065758;28;20040;-52
2024/02/28 05:55:37;;;;;;;36.33;34.13;;;;;;;;;;5063580;28;20060;-53
2024/02/28 05:58:23;;;;;;;35.10;33.20;;;;;;;;;;5067620;28;20441;-51
2024/02/28 06:01:15;;;;;;;35.15;33.15;;;;;;;;;;5060749;28;20387;-51
2024/02/28 06:04:01;;;;;;;36.08;33.80;;;;;;;;;;5062624;28;20074;-50
2024/02/28 06:06:48;;;;;;;35.53;33.60;;;;;;;;;;5064830;28;20427;-53
2024/02/28 06:09:34;;;;;;;36.25;34.25;;;;;;;;;;5061885;28;20428;-52
2024/02/28 06:12:20;;;;;;;35.92;33.83;;;;;;;;;;5050659;28;20257;-51
2024/02/28 06:15:06;;;;;;;35.95;33.90;;;;;;;;;;5064779;28;20493;-52
2024/02/28 06:17:51;;;;;;;35.15;33.15;;;;;;;;;;5063173;28;20075;-51
2024/02/28 06:20:37;;;;;;;32.30;30.20;;;;;;;;;;5067148;28;20054;-53
2024/02/28 06:23:23;;;;;;;35.13;32.92;;;;;;;;;;5078745;28;20029;-54
2024/02/28 06:26:16;;;;;;;37.58;35.30;;;;;;;;;;5065043;28;20065;-54
2024/02/28 06:29:04;;;;;;;32.67;30.95;;;;;;;;;;5066277;28;20108;-54
2024/02/28 06:31:51;;;;;;;32.85;30.95;;;;;;;;;;5066950;28;20040;-54
2024/02/28 06:34:37;;;;;;;33.13;31.33;;;;;;;;;;5065721;28;20144;-53
2024/02/28 06:37:22;;;;;;;33.30;31.50;;;;;;;;;;5060791;28;20442;-55
2024/02/28 06:40:11;;;;;;;36.13;34.05;;;;;;;;;;5066578;28;20039;-54
2024/02/28 06:42:57;;;;;;;36.67;33.97;;;;;;;;;;5064355;28;20304;-52
2024/02/28 06:45:42;;;;;;;34.38;32.47;;;;;;;;;;5065180;28;20032;-53
2024/02/28 06:48:29;;;;;;;33.03;31.27;;;;;;;;;;5046029;28;20361;-53
2024/02/28 06:51:17;;;;;;;32.70;30.95;;;;;;;;;;5062394;28;20067;-55
2024/02/28 06:54:03;;;;;;;32.97;31.17;;;;;;;;;;5066948;28;20060;-55
2024/02/28 06:56:49;;;;;;;31.98;30.10;;;;;;;;;;5062351;28;20040;-53
2024/02/28 06:59:34;;;;;;;31.45;29.70;;;;;;;;;;5066620;28;20056;-54
2024/02/28 07:02:20;;;;;;;31.60;29.80;;;;;;;;;;5059525;28;20823;-52
2024/02/28 07:05:06;;;;;;;34.25;32.05;;;;;;;;;;5064671;28;20036;-55
2024/02/28 07:07:52;;;;;;;30.75;28.92;;;;;;;;;;5064865;28;20033;-55
2024/02/28 07:10:42;;;;;;;33.22;30.92;;;;;;;;;;5066398;28;20463;-53
2024/02/28 07:13:28;;;;;;;29.35;27.77;;;;;;;;;;5062625;28;20033;-54
2024/02/28 07:16:14;;;;;;;31.38;29.27;;;;;;;;;;5067146;28;20040;-54
2024/02/28 07:19:01;;;;;;;29.70;28.02;;;;;;;;;;5063468;28;20043;-53
2024/02/28 07:21:46;;;;;;;34.15;32.20;;;;;;;;;;5064539;28;20366;-55
2024/02/28 07:24:32;;;;;;;32.70;30.60;;;;;;;;;;5060790;28;20091;-50
2024/02/28 07:27:18;;;;;;;32.55;30.65;;;;;;;;;;5064837;28;20368;-52
2024/02/28 07:30:04;;;;;;;31.73;29.83;;;;;;;;;;5061486;28;20037;-54
2024/02/28 07:32:49;;;;;;;29.85;28.17;;;;;;;;;;5063413;28;20047;-53
2024/02/28 07:35:48;;;;;;;30.77;28.58;;;;;;;;;;5063082;28;20124;-51
2024/02/28 07:38:34;;;;;;;28.98;27.17;;;;;;;;;;5064580;28;20036;-55
2024/02/28 07:41:19;;;;;;;28.20;26.52;;;;;;;;;;5050429;28;20086;-55
2024/02/28 07:44:06;;;;;;;26.83;25.00;;;;;;;;;;5064596;28;20036;-55
2024/02/28 07:46:52;;;;;;;24.20;22.70;;;;;;;;;;5062680;28;20503;-55
2024/02/28 07:49:38;;;;;;;24.63;22.80;;;;;;;;;;5062902;28;20028;-55
2024/02/28 07:52:23;;;;;;;28.52;26.20;;;;;;;;;;5064208;28;20118;-54
2024/02/28 07:55:09;;;;;;;26.00;24.27;;;;;;;;;;5059202;28;20037;-52
2024/02/28 07:57:55;;;;;;;26.25;24.58;;;;;;;;;;5063336;28;20044;-54
2024/02/28 08:00:41;;;;;;;25.58;23.77;;;;;;;;;;5062329;28;20473;-52
2024/02/28 08:03:27;;;;;;;25.92;24.13;;;;;;;;;;5059961;28;20115;-52
2024/02/28 08:06:12;;;;;;;28.33;26.45;;;;;;;;;;5060743;28;20048;-56
2024/02/28 08:08:58;;;;;;;26.70;24.98;;;;;;;;;;5053912;28;20116;-54
2024/02/28 08:11:44;;;;;;;25.05;23.58;;;;;;;;;;5050609;28;20047;-56
2024/02/28 08:14:29;;;;;;;27.52;25.35;;;;;;;;;;5062347;28;20109;-55
2024/02/28 08:17:15;;;;;;;25.00;23.50;;;;;;;;;;5059109;28;20084;-55
2024/02/28 08:20:01;;;;;;;24.08;22.65;;;;;;;;;;5060451;28;20056;-52
2024/02/28 08:22:46;;;;;;;25.83;24.23;;;;;;;;;;5062520;28;20033;-50
2024/02/28 08:25:32;;;;;;;31.55;29.45;;;;;;;;;;5057384;28;20225;-53
2024/02/28 08:28:18;;;;;;;28.15;26.38;;;;;;;;;;5062391;28;20052;-54
2024/02/28 08:31:04;;;;;;;30.88;28.65;;;;;;;;;;5060965;28;20036;-53
2024/02/28 08:33:49;;;;;;;35.63;33.63;;;;;;;;;;5066192;28;20047;-55
2024/02/28 08:36:36;;;;;;;33.60;31.70;;;;;;;;;;5061014;28;20079;-56
2024/02/28 08:39:23;;;;;;;36.55;34.45;;;;;;;;;;5063003;28;20840;-56
2024/02/28 08:42:08;;;;;;;40.92;38.63;;;;;;;;;;5064037;28;20046;-51
2024/02/28 08:44:54;;;;;;;40.42;37.75;;;;;;;;;;5062450;28;20039;-54
2024/02/28 08:47:41;;;;;;;41.75;39.08;;;;;;;;;;5061329;28;20126;-55
2024/02/28 08:50:28;;;;;;;43.17;40.63;;;;;;;;;;5062507;28;20076;-54
2024/02/28 08:53:14;;;;;;;43.83;40.90;;;;;;;;;;5061061;28;20127;-55
2024/02/28 08:56:00;;;;;;;44.63;42.13;;;;;;;;;;5063300;28;20044;-55
2024/02/28 08:58:45;;;;;;;47.78;44.88;;;;;;;;;;5060639;28;20686;-56
2024/02/28 09:01:33;;;;;;;44.33;41.75;;;;;;;;;;5064577;28;20124;-54
2024/02/28 09:04:19;;;;;;;40.88;38.60;;;;;;;;;;5062280;28;20059;-55
2024/02/28 09:07:04;;;;;;;41.40;38.90;;;;;;;;;;5060285;28;20358;-56
2024/02/28 09:09:50;;;;;;;44.85;41.72;;;;;;;;;;5063377;28;20044;-54
2024/02/28 09:12:36;;;;;;;28.50;26.55;;;;;;;;;;5058354;28;20040;-55
2024/02/28 09:15:22;;;;;;;37.30;34.97;;;;;;;;;;5058062;28;20114;-55
2024/02/28 09:18:08;;;;;;;25.02;23.42;;;;;;;;;;5047757;28;20431;-56
2024/02/28 09:20:54;;;;;;;30.85;28.67;;;;;;;;;;5063662;28;20044;-56
2024/02/28 09:23:40;;;;;;;26.58;24.75;;;;;;;;;;5060348;28;20123;-57
2024/02/28 09:26:26;;;;;;;26.00;24.25;;;;;;;;;;5061358;28;20113;-56
2024/02/28 09:29:12;;;;;;;37.05;34.72;;;;;;;;;;5061935;28;20029;-55
2024/02/28 09:31:58;;;;;;;26.70;24.70;;;;;;;;;;5058520;28;20135;-55
2024/02/28 09:34:44;;;;;;;29.90;28.10;;;;;;;;;;5059022;28;20410;-56
2024/02/28 09:37:29;;;;;;;38.65;36.38;;;;;;;;;;5060056;28;20036;-56
2024/02/28 09:40:16;;;;;;;25.50;23.83;;;;;;;;;;5060645;28;20036;-54
2024/02/28 09:43:05;;;;;;;26.25;24.75;;;;;;;;;;5058583;28;20051;-54
2024/02/28 09:45:51;;;;;;;27.00;25.35;;;;;;;;;;5061884;28;20382;-54
2024/02/28 09:48:40;;;;;;;34.65;32.17;;;;;;;;;;5062577;28;20021;-54
2024/02/28 09:51:27;;;;;;;45.22;42.70;;;;;;;;;;5061037;28;20039;-56
2024/02/28 09:54:13;;;;;;;45.50;42.75;;;;;;;;;;5059396;28;20039;-57
2024/02/28 09:56:59;;;;;;;40.53;38.20;;;;;;;;;;5064771;28;20037;-55
2024/02/28 09:59:45;;;;;;;31.60;29.70;;;;;;;;;;5064623;28;20050;-56
2024/02/28 10:02:31;;;;;;;31.13;29.17;;;;;;;;;;5048337;28;20295;-55
2024/02/28 10:05:18;;;;;;;33.95;31.73;;;;;;;;;;5060362;28;20041;-55
2024/02/28 10:08:05;;;;;;;32.65;30.65;;;;;;;;;;5062400;28;20028;-56
2024/02/28 10:10:55;;;;;;;28.80;27.00;;;;;;;;;;5061667;28;20493;-56
2024/02/28 10:13:41;;;;;;;29.13;27.17;;;;;;;;;;5060727;28;20114;-57
2024/02/28 10:16:27;;;;;;;29.38;27.35;;;;;;;;;;5057252;28;20037;-56
2024/02/28 10:19:12;;;;;;;30.70;28.42;;;;;;;;;;5050591;28;20044;-56
2024/02/28 10:21:58;;;;;;;28.58;26.75;;;;;;;;;;5066598;28;20068;-57
2024/02/28 10:24:44;;;;;;;30.60;28.88;;;;;;;;;;5061491;28;20646;-55
2024/02/28 10:27:34;;;;;;;27.92;26.30;;;;;;;;;;5068547;28;20647;-57
2024/02/28 10:30:19;;;;;;;30.13;28.27;;;;;;;;;;5063117;28;20109;-55
2024/02/28 10:33:16;;;;;;;31.05;28.80;;;;;;;;;;5066359;28;20044;-56
2024/02/28 10:36:05;;;;;;;29.88;27.63;;;;;;;;;;5068767;28;20072;-57
2024/02/28 10:38:50;;;;;;;32.33;30.17;;;;;;;;;;5067872;28;20492;-56
2024/02/28 10:41:38;;;;;;;31.00;28.90;;;;;;;;;;5065668;28;20040;-57
2024/02/28 10:44:26;;;;;;;41.05;38.78;;;;;;;;;;5068088;28;20121;-57
2024/02/28 10:47:14;;;;;;;38.45;36.13;;;;;;;;;;5040034;28;20036;-56
2024/02/28 10:50:00;;;;;;;39.70;37.22;;;;;;;;;;5067077;28;20422;-55
2024/02/28 10:52:50;;;;;;;40.92;38.67;;;;;;;;;;5063421;28;20029;-57
2024/02/28 10:55:40;;;;;;;38.55;36.40;;;;;;;;;;5062574;28;20114;-57
2024/02/28 10:58:29;;;;;;;42.03;39.40;;;;;;;;;;5064034;28;20028;-57
2024/02/28 11:01:15;;;;;;;34.60;32.58;;;;;;;;;;5062495;28;20156;-57
2024/02/28 11:04:02;;;;;;;33.10;31.00;;;;;;;;;;5062765;28;20071;-57
2024/02/28 11:06:50;;;;;;;27.23;25.63;;;;;;;;;;5064764;28;20308;-57
2024/02/28 11:09:36;;;;;;;37.70;35.53;;;;;;;;;;5063886;28;20032;-57
2024/02/28 11:12:28;;;;;;;34.58;32.28;;;;;;;;;;5064396;28;20040;-57
2024/02/28 11:15:17;;;;;;;41.75;39.25;;;;;;;;;;5065441;28;20462;-56
2024/02/28 11:18:09;;;;;;;39.95;37.67;;;;;;;;;;5053139;28;20036;-58
2024/02/28 11:20:55;;;;;;;40.80;38.35;;;;;;;;;;5064934;28;20047;-57
2024/02/28 11:23:41;;;;;;;44.15;41.17;;;;;;;;;;5067321;28;20044;-57
2024/02/28 11:26:30;;;;;;;38.13;35.85;;;;;;;;;;5064415;28;20577;-56
2024/02/28 11:29:15;;;;;;;40.15;37.40;;;;;;;;;;5064893;28;20389;-58
2024/02/28 11:32:01;;;;;;;32.75;30.73;;;;;;;;;;5070506;28;20028;-57
2024/02/28 11:34:47;;;;;;;37.75;35.63;;;;;;;;;;5062282;28;20067;-57
2024/02/28 11:37:33;;;;;;;29.20;27.40;;;;;;;;;;5062649;28;20079;-55
2024/02/28 11:40:19;;;;;;;33.50;31.02;;;;;;;;;;5053096;28;20484;-56
2024/02/28 11:43:05;;;;;;;35.95;33.67;;;;;;;;;;5063767;28;20290;-57
2024/02/28 11:45:50;;;;;;;34.67;32.55;;;;;;;;;;5065903;28;20389;-58
2024/02/28 11:48:36;;;;;;;28.80;27.05;;;;;;;;;;5062122;28;20039;-57
2024/02/28 11:51:22;;;;;;;27.65;26.05;;;;;;;;;;5064990;28;20044;-56
2024/02/28 11:54:08;;;;;;;28.90;27.10;;;;;;;;;;5063240;28;20401;-57
2024/02/28 11:56:55;;;;;;;29.30;27.30;;;;;;;;;;5066561;28;20040;-58
2024/02/28 11:59:40;;;;;;;31.05;29.30;;;;;;;;;;5064740;28;20103;-57
2024/02/28 12:02:26;;;;;;;26.80;25.15;;;;;;;;;;5063476;28;20150;-58
2024/02/28 12:05:12;;;;;;;27.42;25.30;;;;;;;;;;5063975;28;20119;-58
2024/02/28 12:07:58;;;;;;;32.65;30.70;;;;;;;;;;5065687;28;20072;-57
2024/02/28 12:10:44;;;;;;;35.00;32.95;;;;;;;;;;5062980;28;20052;-57
2024/02/28 12:13:29;;;;;;;34.35;32.25;;;;;;;;;;5062025;28;20052;-56
2024/02/28 12:16:15;;;;;;;26.55;24.80;;;;;;;;;;5065401;28;20393;-58
2024/02/28 12:19:03;;;;;;;26.50;25.00;;;;;;;;;;5064614;28;20744;-57
2024/02/28 12:21:48;;;;;;;26.83;24.92;;;;;;;;;;5066069;28;20484;-58
2024/02/28 12:24:34;;;;;;;27.90;26.30;;;;;;;;;;5064956;28;20134;-58
2024/02/28 12:27:20;;;;;;;26.27;24.67;;;;;;;;;;5063508;28;20105;-58
2024/02/28 12:30:06;;;;;;;26.40;24.90;;;;;;;;;;5064528;28;20040;-58
2024/02/28 12:32:52;;;;;;;26.02;24.58;;;;;;;;;;5062192;28;20427;-58
2024/02/28 12:35:37;;;;;;;28.13;26.20;;;;;;;;;;5065049;28;20113;-57
2024/02/28 12:38:23;;;;;;;29.15;27.42;;;;;;;;;;5062392;28;20130;-58
2024/02/28 12:41:09;;;;;;;27.67;26.08;;;;;;;;;;5060922;28;20067;-57
2024/02/28 12:43:55;;;;;;;25.13;23.73;;;;;;;;;;5062872;28;20036;-57
2024/02/28 12:46:40;;;;;;;28.35;26.58;;;;;;;;;;5063826;28;20044;-56
2024/02/28 12:49:26;;;;;;;26.75;25.17;;;;;;;;;;5064620;28;20041;-58
2024/02/28 12:52:12;;;;;;;25.58;24.02;;;;;;;;;;5065957;28;20083;-58
2024/02/28 12:54:57;;;;;;;24.48;22.98;;;;;;;;;;5059861;28;20105;-58
2024/02/28 12:57:43;;;;;;;25.70;24.17;;;;;;;;;;5065503;28;20040;-56
2024/02/28 13:00:29;;;;;;;28.63;26.90;;;;;;;;;;5063082;28;20128;-57
2024/02/28 13:03:16;;;;;;;26.23;24.73;;;;;;;;;;5064158;28;20040;-56
2024/02/28 13:06:01;;;;;;;26.60;24.80;;;;;;;;;;5061903;28;20036;-57
2024/02/28 13:08:51;;;;;;;25.20;23.73;;;;;;;;;;5059955;28;20643;-57
2024/02/28 13:11:37;;;;;;;25.40;23.90;;;;;;;;;;5063835;28;20175;-56
2024/02/28 13:14:22;;;;;;;25.63;24.13;;;;;;;;;;5064077;28;20418;-56
2024/02/28 13:17:08;;;;;;;24.83;23.33;;;;;;;;;;5063977;28;20363;-56
2024/02/28 13:19:54;;;;;;;27.33;25.63;;;;;;;;;;5060706;28;20199;-57
2024/02/28 13:22:39;;;;;;;30.10;28.10;;;;;;;;;;5067437;28;20051;-56
2024/02/28 13:25:26;;;;;;;31.80;30.00;;;;;;;;;;5062841;28;20040;-55
2024/02/28 13:28:12;;;;;;;26.25;24.63;;;;;;;;;;5063593;28;20055;-57
2024/02/28 13:31:01;;;;;;;30.98;29.20;;;;;;;;;;5062934;28;20044;-57
2024/02/28 13:33:48;;;;;;;27.80;26.20;;;;;;;;;;5061655;28;20060;-57
2024/02/28 13:36:36;;;;;;;27.70;26.08;;;;;;;;;;5060666;28;20128;-58
2024/02/28 13:39:23;;;;;;;31.90;30.10;;;;;;;;;;5059839;28;20040;-57
2024/02/28 13:42:09;;;;;;;27.75;26.05;;;;;;;;;;5062523;28;20380;-57
2024/02/28 13:44:55;;;;;;;31.83;30.10;;;;;;;;;;5061789;28;20041;-58
2024/02/28 13:47:40;;;;;;;26.20;24.70;;;;;;;;;;5060458;28;20470;-57
2024/02/28 13:50:31;;;;;;;23.70;22.23;;;;;;;;;;5063965;28;20482;-57
2024/02/28 13:53:17;;;;;;;25.33;23.75;;;;;;;;;;5065302;28;20032;-57
2024/02/28 13:56:03;;;;;;;24.50;22.25;;;;;;;;;;5061346;28;20148;-57
2024/02/28 13:58:48;;;;;;;24.42;22.92;;;;;;;;;;5060839;28;20040;-57
2024/02/28 14:01:34;;;;;;;23.55;22.15;;;;;;;;;;5066216;28;20128;-57
2024/02/28 14:04:19;;;;;;;25.17;23.67;;;;;;;;;;5069071;28;20036;-56
2024/02/28 14:07:05;;;;;;;25.25;23.85;;;;;;;;;;5052357;28;20044;-58
2024/02/28 14:09:50;;;;;;;25.40;23.80;;;;;;;;;;5067550;28;20101;-56
2024/02/28 14:12:37;;;;;;;24.83;23.42;;;;;;;;;;5052519;28;20044;-55
2024/02/28 14:15:23;;;;;;;23.10;21.63;;;;;;;;;;5064406;28;20478;-58
2024/02/28 14:18:08;;;;;;;24.48;22.20;;;;;;;;;;5068406;28;20347;-57
2024/02/28 14:20:54;;;;;;;25.13;23.63;;;;;;;;;;5064692;28;20230;-57
2024/02/28 14:23:41;;;;;;;25.63;24.20;;;;;;;;;;5054920;28;20354;-54
2024/02/28 14:26:26;;;;;;;24.73;23.30;;;;;;;;;;5070827;28;20083;-56
2024/02/28 14:29:12;;;;;;;25.90;24.30;;;;;;;;;;5065502;28;20127;-57
2024/02/28 14:32:00;;;;;;;23.05;21.67;;;;;;;;;;5064614;28;20032;-57
2024/02/28 14:34:45;;;;;;;24.23;22.88;;;;;;;;;;5063864;28;20393;-57
2024/02/28 14:37:31;;;;;;;22.83;21.48;;;;;;;;;;5063280;28;20036;-57
2024/02/28 14:40:16;;;;;;;25.40;23.85;;;;;;;;;;5066103;28;20044;-58
2024/02/28 14:43:02;;;;;;;22.42;21.13;;;;;;;;;;5063312;28;20029;-56
2024/02/28 14:45:48;;;;;;;22.98;21.67;;;;;;;;;;5051475;28;20036;-58
2024/02/28 14:48:34;;;;;;;25.45;23.60;;;;;;;;;;5067702;28;20037;-58
2024/02/28 14:51:19;;;;;;;25.33;23.92;;;;;;;;;;5068930;28;20040;-56
2024/02/28 14:54:05;;;;;;;24.15;22.85;;;;;;;;;;5065603;28;20076;-58
2024/02/28 14:56:50;;;;;;;23.50;21.98;;;;;;;;;;5063431;28;20052;-58
2024/02/28 14:59:36;;;;;;;25.52;24.02;;;;;;;;;;5065440;28;20272;-58
2024/02/28 15:02:22;;;;;;;24.55;23.13;;;;;;;;;;5065873;28;20055;-58
2024/02/28 15:05:08;;;;;;;24.77;23.45;;;;;;;;;;5066089;28;20123;-57
2024/02/28 15:07:54;;;;;;;26.73;25.13;;;;;;;;;;5052406;28;20044;-57
2024/02/28 15:10:40;;;;;;;25.58;23.90;;;;;;;;;;5063349;28;20036;-57
2024/02/28 15:13:26;;;;;;;25.15;23.35;;;;;;;;;;5065815;28;20118;-57
2024/02/28 15:16:11;;;;;;;27.42;25.83;;;;;;;;;;5063564;28;20040;-55
2024/02/28 15:18:57;;;;;;;27.25;25.65;;;;;;;;;;5064941;28;20046;-58
2024/02/28 15:21:43;;;;;;;27.67;26.05;;;;;;;;;;5062531;28;20044;-52
2024/02/28 15:24:28;;;;;;;26.48;25.02;;;;;;;;;;5062215;28;20052;-58
2024/02/28 15:27:14;;;;;;;27.15;25.42;;;;;;;;;;5064160;28;20052;-58
2024/02/28 15:29:59;;;;;;;27.58;25.98;;;;;;;;;;5064355;28;20036;-60
2024/02/28 15:32:45;;;;;;;28.40;26.55;;;;;;;;;;5067367;28;20109;-58
2024/02/28 15:35:31;;;;;;;31.88;30.13;;;;;;;;;;5061277;28;20044;-57
2024/02/28 15:38:16;;;;;;;27.88;26.23;;;;;;;;;;5067140;28;20036;-58
2024/02/28 15:41:03;;;;;;;32.42;30.58;;;;;;;;;;5063025;28;20051;-57
2024/02/28 15:43:49;;;;;;;30.05;28.15;;;;;;;;;;5063526;28;20040;-58
2024/02/28 15:46:37;;;;;;;28.38;26.80;;;;;;;;;;5066007;28;20736;-58
2024/02/28 15:49:22;;;;;;;28.30;26.70;;;;;;;;;;5063737;28;20040;-55
2024/02/28 15:52:09;;;;;;;29.38;27.77;;;;;;;;;;5053472;28;20489;-56
2024/02/28 15:54:54;;;;;;;29.83;28.17;;;;;;;;;;5047806;28;20040;-55
2024/02/28 15:57:40;;;;;;;30.05;28.33;;;;;;;;;;5066852;28;20041;-57
2024/02/28 16:00:26;;;;;;;29.20;27.58;;;;;;;;;;5066454;28;20035;-54
2024/02/28 16:03:11;;;;;;;31.02;29.02;;;;;;;;;;5051934;28;20119;-57
2024/02/28 16:05:57;;;;;;;28.25;26.63;;;;;;;;;;5049877;28;20452;-57
2024/02/28 16:08:42;;;;;;;30.65;28.75;;;;;;;;;;5049783;28;20175;-56